createdAt,value
2019-01-26T00:01:42.761Z,77.81
2019-01-26T00:06:50.365Z,104.53
2019-01-26T00:11:58.057Z,77.66
2019-01-26T00:17:05.693Z,79.59
2019-01-26T00:22:13.332Z,80.60
2019-01-26T00:27:21.013Z,78.75
2019-01-26T00:32:28.653Z,106.73
2019-01-26T00:37:36.304Z,81.51
2019-01-26T00:42:43.957Z,79.29
2019-01-26T00:47:51.587Z,104.94
2019-01-26T00:52:59.242Z,77.56
2019-01-26T00:58:06.887Z,78.08
2019-01-26T01:03:14.514Z,78.17
2019-01-26T01:08:22.193Z,99.42
2019-01-26T01:13:29.833Z,73.65
2019-01-26T01:18:37.476Z,73.51
2019-01-26T01:23:45.145Z,75.26
2019-01-26T01:28:52.804Z,76.16
2019-01-26T01:34:00.444Z,79.36
2019-01-26T01:39:08.201Z,81.75
2019-01-26T01:44:15.812Z,83.47
2019-01-26T01:49:23.485Z,83.77
2019-01-26T01:54:31.129Z,85.95
2019-01-26T01:59:38.862Z,83.06
2019-01-26T02:04:46.472Z,86.12
2019-01-26T02:09:54.124Z,83.14
2019-01-26T02:15:01.793Z,84.60
2019-01-26T02:20:09.521Z,85.56
2019-01-26T02:25:17.121Z,82.15
2019-01-26T02:30:24.751Z,82.22
2019-01-26T02:35:32.369Z,81.18
2019-01-26T02:40:40.058Z,82.43
2019-01-26T02:45:47.712Z,81.07
2019-01-26T02:50:55.352Z,102.58
2019-01-26T02:56:02.990Z,77.93
2019-01-26T03:01:10.608Z,76.84
2019-01-26T03:06:18.297Z,80.09
2019-01-26T03:11:25.929Z,80.75
2019-01-26T03:16:33.588Z,82.94
2019-01-26T03:21:41.232Z,80.71
2019-01-26T03:26:48.957Z,83.16
2019-01-26T03:31:56.565Z,81.60
2019-01-26T03:37:04.284Z,84.47
2019-01-26T03:42:11.905Z,85.73
2019-01-26T03:47:19.586Z,83.92
2019-01-26T03:52:27.190Z,104.15
2019-01-26T03:57:34.874Z,98.58
2019-01-26T04:02:42.496Z,73.29
2019-01-26T04:07:50.202Z,71.17
2019-01-26T04:12:57.813Z,70.66
2019-01-26T04:18:05.474Z,72.42
2019-01-26T04:23:13.073Z,88.15
2019-01-26T04:28:20.738Z,85.79
2019-01-26T04:33:28.369Z,62.81
2019-01-26T04:38:36.091Z,64.84
2019-01-26T04:43:43.730Z,68.48
2019-01-26T04:48:51.365Z,67.68
2019-01-26T04:53:59.002Z,66.25
2019-01-26T04:59:06.676Z,67.75
2019-01-26T05:04:14.300Z,86.41
2019-01-26T05:09:21.937Z,77.44
2019-01-26T05:14:29.549Z,60.27
2019-01-26T05:19:37.253Z,60.18
2019-01-26T05:24:44.860Z,78.19
2019-01-26T05:29:52.530Z,72.77
2019-01-26T05:35:00.173Z,55.86
2019-01-26T05:40:07.862Z,56.11
2019-01-26T05:45:15.500Z,58.05
2019-01-26T05:50:23.183Z,58.02
2019-01-26T05:55:30.819Z,56.01
2019-01-26T06:00:38.513Z,56.44
2019-01-26T06:05:46.177Z,55.61
2019-01-26T06:10:53.873Z,68.82
2019-01-26T06:16:01.516Z,54.36
2019-01-26T06:21:09.176Z,53.85
2019-01-26T06:26:16.799Z,54.29
2019-01-26T06:31:24.457Z,55.31
2019-01-26T06:36:32.110Z,56.33
2019-01-26T06:41:39.758Z,56.12
2019-01-26T06:46:47.377Z,57.00
2019-01-26T06:51:55.096Z,70.94
2019-01-26T06:57:02.744Z,70.69
2019-01-26T07:02:10.426Z,54.47
2019-01-26T07:07:18.062Z,53.54
2019-01-26T07:12:25.721Z,54.88
2019-01-26T07:17:33.402Z,55.42
2019-01-26T07:22:41.253Z,55.13
2019-01-26T07:27:48.889Z,70.37
2019-01-26T07:32:57.100Z,52.69
2019-01-26T07:38:04.714Z,53.23
2019-01-26T07:43:12.452Z,53.91
2019-01-26T07:48:20.256Z,68.45
2019-01-26T07:53:28.008Z,52.95
2019-01-26T07:58:35.629Z,52.27
2019-01-26T08:03:43.344Z,53.39
2019-01-26T08:08:50.968Z,52.60
2019-01-26T08:13:58.857Z,52.38
2019-01-26T08:19:06.502Z,51.35
2019-01-26T08:24:14.154Z,52.17
2019-01-26T08:29:21.804Z,51.60
2019-01-26T08:34:29.450Z,61.44
2019-01-26T08:39:37.124Z,47.34
2019-01-26T08:44:44.792Z,47.91
2019-01-26T08:49:52.437Z,44.06
2019-01-26T08:55:00.191Z,43.15
2019-01-26T09:00:07.805Z,40.86
2019-01-26T09:05:19.215Z,49.33
2019-01-26T09:10:16.805Z,40.56
2019-01-26T09:15:24.550Z,38.94
2019-01-26T09:20:35.712Z,37.05
2019-01-26T09:25:39.981Z,36.12
2019-01-26T09:30:37.613Z,34.23
2019-01-26T09:35:45.240Z,40.89
2019-01-26T09:40:52.856Z,38.93
2019-01-26T09:46:00.538Z,38.56
2019-01-26T09:51:08.167Z,38.35
2019-01-26T09:56:15.889Z,38.89
2019-01-26T10:01:23.537Z,31.55
2019-01-26T10:06:31.249Z,30.06
2019-01-26T10:11:38.896Z,29.32
2019-01-26T10:16:46.649Z,29.59
2019-01-26T10:21:54.281Z,33.22
2019-01-26T10:27:01.921Z,26.06
2019-01-26T10:32:09.546Z,26.52
2019-01-26T10:37:17.205Z,25.23
2019-01-26T10:42:24.828Z,25.44
2019-01-26T10:47:32.490Z,24.30
2019-01-26T10:52:40.132Z,24.66
2019-01-26T10:57:47.856Z,29.80
2019-01-26T11:02:55.491Z,26.30
2019-01-26T11:08:03.128Z,21.76
2019-01-26T11:13:10.768Z,22.37
2019-01-26T11:18:18.401Z,18.49
2019-01-26T11:23:26.101Z,19.52
2019-01-26T11:28:33.750Z,19.61
2019-01-26T11:33:41.446Z,19.56
2019-01-26T11:38:49.067Z,16.32
2019-01-26T11:43:56.744Z,17.85
2019-01-26T11:49:04.390Z,11.72
2019-01-26T11:54:12.060Z,13.66
2019-01-26T11:59:19.677Z,10.28
2019-01-26T12:04:27.446Z,10.32
2019-01-26T12:09:35.049Z,10.23
2019-01-26T12:14:42.765Z,12.09
2019-01-26T12:19:50.376Z,14.70
2019-01-26T12:24:58.104Z,11.04
2019-01-26T12:30:05.734Z,12.41
2019-01-26T12:35:13.396Z,13.31
2019-01-26T12:40:21.021Z,14.11
2019-01-26T12:45:28.705Z,13.68
2019-01-26T12:50:36.339Z,13.40
2019-01-26T12:55:44.013Z,12.35
2019-01-26T13:00:51.661Z,12.07
2019-01-26T13:05:59.405Z,11.05
2019-01-26T13:11:07.062Z,11.18
2019-01-26T13:16:14.788Z,10.06
2019-01-26T13:21:22.489Z,10.08
2019-01-26T13:26:30.204Z,9.33
2019-01-26T13:31:37.849Z,9.68
2019-01-26T13:36:45.556Z,8.67
2019-01-26T13:41:53.212Z,9.41
2019-01-26T13:47:00.941Z,10.62
2019-01-26T13:52:11.596Z,12.32
2019-01-26T13:57:09.318Z,9.63
2019-01-26T14:02:16.948Z,10.47
2019-01-26T14:07:24.660Z,7.97
2019-01-26T14:12:32.277Z,8.02
2019-01-26T14:17:39.932Z,7.05
2019-01-26T14:22:47.581Z,6.64
2019-01-26T14:27:55.190Z,7.30
2019-01-26T14:33:02.808Z,7.00
2019-01-26T14:38:10.433Z,5.94
2019-01-26T14:43:18.100Z,5.16
2019-01-26T14:48:25.773Z,4.99
2019-01-26T14:53:33.408Z,5.53
2019-01-26T14:58:41.674Z,6.03
2019-01-26T15:03:49.335Z,5.84
2019-01-26T15:08:56.952Z,7.48
2019-01-26T15:14:04.640Z,6.42
2019-01-26T15:19:12.294Z,7.14
2019-01-26T15:24:19.943Z,7.31
2019-01-26T15:29:27.584Z,7.87
2019-01-26T15:34:35.216Z,6.83
2019-01-26T15:39:42.896Z,7.90
2019-01-26T15:44:50.540Z,8.33
2019-01-26T15:49:58.214Z,8.89
2019-01-26T15:55:05.847Z,8.67
2019-01-26T16:00:13.506Z,10.68
2019-01-26T16:05:21.129Z,9.47
2019-01-26T16:10:28.760Z,9.89
2019-01-26T16:15:36.406Z,10.17
2019-01-26T16:20:44.126Z,12.32
2019-01-26T16:25:51.748Z,12.18
2019-01-26T16:30:59.389Z,10.59
2019-01-26T16:36:07.045Z,10.33
2019-01-26T16:41:14.700Z,10.75
2019-01-26T16:46:22.321Z,11.88
2019-01-26T16:51:30.019Z,17.33
2019-01-26T16:56:37.651Z,13.07
2019-01-26T17:01:45.337Z,13.34
2019-01-26T17:06:52.977Z,15.33
2019-01-26T17:12:00.696Z,13.02
2019-01-26T17:17:08.325Z,14.28
2019-01-26T17:22:16.017Z,14.51
2019-01-26T17:27:23.666Z,15.56
2019-01-26T17:32:31.317Z,16.14
2019-01-26T17:37:38.967Z,17.77
2019-01-26T17:42:46.632Z,17.73
2019-01-26T17:47:54.360Z,16.80
2019-01-26T17:53:02.049Z,18.68
2019-01-26T17:58:10.008Z,17.59
2019-01-26T18:03:17.803Z,20.80
2019-01-26T18:08:25.443Z,17.28
2019-01-26T18:13:33.097Z,17.63
2019-01-26T18:18:40.746Z,18.30
2019-01-26T18:23:48.550Z,17.86
2019-01-26T18:28:56.205Z,17.91
2019-01-26T18:34:03.963Z,16.73
2019-01-26T18:39:11.645Z,16.89
2019-01-26T18:44:19.352Z,15.79
2019-01-26T18:49:26.975Z,27.28
2019-01-26T18:54:34.768Z,28.48
2019-01-26T18:59:42.421Z,35.44
2019-01-26T19:04:50.166Z,15.29
2019-01-26T19:09:57.812Z,14.73
2019-01-26T19:15:05.465Z,18.92
2019-01-26T19:20:13.144Z,14.84
2019-01-26T19:25:20.784Z,13.83
2019-01-26T19:30:28.439Z,13.63
2019-01-26T19:35:36.145Z,13.26
2019-01-26T19:40:43.857Z,13.15
2019-01-26T19:45:51.516Z,12.93
2019-01-26T19:50:59.205Z,12.15
2019-01-26T19:56:06.835Z,11.96
2019-01-26T20:01:14.654Z,11.33
2019-01-26T20:06:22.328Z,11.10
2019-01-26T20:11:30.033Z,11.43
2019-01-26T20:16:37.659Z,11.58
2019-01-26T20:21:45.402Z,12.00
2019-01-26T20:26:53.109Z,11.88
2019-01-26T20:32:00.796Z,11.64
2019-01-26T20:37:08.433Z,11.48
2019-01-26T20:42:16.140Z,11.26
2019-01-26T20:47:23.793Z,11.73
2019-01-26T20:52:31.559Z,11.67
2019-01-26T20:57:39.347Z,10.89
2019-01-26T21:02:47.309Z,11.54
2019-01-26T21:07:55.004Z,9.96
2019-01-26T21:13:02.660Z,10.26
2019-01-26T21:18:10.305Z,10.36
2019-01-26T21:23:17.916Z,11.96
2019-01-26T21:28:25.624Z,10.07
2019-01-26T21:33:33.277Z,9.99
2019-01-26T21:38:40.974Z,9.58
2019-01-26T21:43:48.641Z,9.14
2019-01-26T21:48:56.346Z,8.98
2019-01-26T21:54:03.972Z,8.82
2019-01-26T21:59:11.692Z,8.90
2019-01-26T22:04:19.374Z,8.92
2019-01-26T22:09:27.052Z,9.96
2019-01-26T22:14:35.669Z,9.70
2019-01-26T22:19:41.995Z,8.77
2019-01-26T22:24:49.690Z,8.55
2019-01-26T22:29:57.326Z,9.50
2019-01-26T22:35:05.032Z,9.44
2019-01-26T22:40:12.705Z,8.97
2019-01-26T22:45:20.395Z,7.84
2019-01-26T22:50:28.096Z,7.34
2019-01-26T22:55:35.748Z,7.90
2019-01-26T23:00:43.357Z,7.15
2019-01-26T23:05:51.115Z,6.66
2019-01-26T23:10:58.764Z,6.90
2019-01-26T23:16:06.492Z,6.01
2019-01-26T23:21:14.182Z,5.90
2019-01-26T23:26:21.889Z,5.49
2019-01-26T23:31:29.594Z,5.38
2019-01-26T23:36:37.274Z,5.46
2019-01-26T23:41:44.962Z,5.59
2019-01-26T23:46:52.641Z,5.89
2019-01-26T23:52:00.378Z,6.95
2019-01-26T23:57:07.869Z,6.01
